Time;durP1;ratioP1;P1;durP2;ratioP2;P2;SDS_P1;SDS_P2;PMS_P1;PMS_P2;Temp;Humidity;BMP_temperature;BMP_pressure;BME280_temperature;BME280_humidity;BME280_pressure;Samples;Min_cycle;Max_cycle;Signal;HPM_P1;HPM_P2
2024/01/27 00:00:02;;;;;;;10.80;3.05;;;;;;;1.10;100.00;103241.34;5068505;28;20067;-53
2024/01/27 00:02:30;;;;;;;17.27;5.45;;;;;;;1.09;100.00;103252.59;5070701;28;20048;-52
2024/01/27 00:05:00;;;;;;;14.10;3.35;;;;;;;1.07;100.00;103251.69;5069195;28;20429;-53
2024/01/27 00:07:28;;;;;;;16.58;4.20;;;;;;;1.06;100.00;103249.09;5069643;28;20048;-53
2024/01/27 00:09:58;;;;;;;14.95;4.07;;;;;;;1.05;100.00;103253.41;5071055;28;20088;-55
2024/01/27 00:12:27;;;;;;;16.88;4.25;;;;;;;1.07;100.00;103266.38;5068127;28;20055;-53
2024/01/27 00:14:55;;;;;;;10.82;3.65;;;;;;;1.04;100.00;103264.63;5068028;28;20044;-52
2024/01/27 00:17:25;;;;;;;19.40;4.50;;;;;;;1.00;100.00;103258.50;5071571;28;20083;-50
2024/01/27 00:19:53;;;;;;;21.40;4.60;;;;;;;0.98;100.00;103260.22;5072756;28;20123;-52
2024/01/27 00:22:22;;;;;;;20.45;4.68;;;;;;;0.95;100.00;103269.66;5069399;28;20053;-53
2024/01/27 00:24:51;;;;;;;16.55;4.85;;;;;;;0.94;100.00;103261.03;5070022;28;20037;-50
2024/01/27 00:27:19;;;;;;;13.38;4.10;;;;;;;0.93;100.00;103263.63;5071676;28;20049;-52
2024/01/27 00:29:47;;;;;;;14.43;4.25;;;;;;;0.88;100.00;103255.75;5072280;28;20492;-52
2024/01/27 00:32:15;;;;;;;16.30;3.60;;;;;;;0.91;100.00;103260.13;5072197;28;20514;-53
2024/01/27 00:34:43;;;;;;;12.07;3.30;;;;;;;0.88;100.00;103263.53;5069416;28;20563;-53
2024/01/27 00:37:12;;;;;;;15.85;4.13;;;;;;;0.84;100.00;103254.81;5069646;28;20403;-54
2024/01/27 00:39:41;;;;;;;14.10;3.72;;;;;;;0.84;100.00;103260.00;5070451;28;20126;-47
2024/01/27 00:42:09;;;;;;;11.52;3.22;;;;;;;0.84;100.00;103269.53;5068741;28;20048;-48
2024/01/27 00:44:38;;;;;;;13.63;4.10;;;;;;;0.87;100.00;103268.69;5073067;28;20044;-48
2024/01/27 00:47:06;;;;;;;19.55;4.70;;;;;;;0.84;100.00;103266.94;5076605;28;20048;-47
2024/01/27 00:49:34;;;;;;;19.17;4.55;;;;;;;0.81;100.00;103272.06;5076578;28;20051;-48
2024/01/27 00:52:02;;;;;;;16.23;3.95;;;;;;;0.77;100.00;103262.50;5076202;28;20079;-46
2024/01/27 00:54:31;;;;;;;14.88;3.97;;;;;;;0.75;100.00;103262.50;5076421;28;20362;-52
2024/01/27 00:57:00;;;;;;;14.05;3.63;;;;;;;0.73;100.00;103261.59;5075978;28;20139;-46
2024/01/27 00:59:28;;;;;;;13.18;4.43;;;;;;;0.72;100.00;103274.53;5076349;28;20044;-46
2024/01/27 01:01:56;;;;;;;15.43;4.00;;;;;;;0.73;100.00;103274.53;5076310;28;20041;-46
2024/01/27 01:04:25;;;;;;;12.40;3.47;;;;;;;0.72;100.00;103275.38;5076300;28;20480;-47
2024/01/27 01:06:53;;;;;;;19.10;4.90;;;;;;;0.70;100.00;103277.09;5076551;28;20055;-50
2024/01/27 01:09:21;;;;;;;18.55;3.97;;;;;;;0.69;100.00;103264.97;5073823;28;20119;-46
2024/01/27 01:11:49;;;;;;;13.65;4.30;;;;;;;0.68;100.00;103265.81;5073869;28;20044;-46
2024/01/27 01:14:19;;;;;;;13.85;3.67;;;;;;;0.65;100.00;103266.66;5074915;28;20072;-48
2024/01/27 01:16:47;;;;;;;16.08;3.95;;;;;;;0.65;100.00;103270.97;5073266;28;20053;-48
2024/01/27 01:19:16;;;;;;;17.38;4.63;;;;;;;0.65;100.00;103273.56;5071614;28;20052;-47
2024/01/27 01:21:44;;;;;;;13.13;3.80;;;;;;;0.64;100.00;103264.03;5073755;28;20060;-52
2024/01/27 01:24:12;;;;;;;19.75;4.45;;;;;;;0.62;100.00;103269.19;5073457;28;20106;-55
2024/01/27 01:26:40;;;;;;;16.02;4.63;;;;;;;0.62;100.00;103269.19;5072588;28;20048;-56
2024/01/27 01:29:09;;;;;;;13.82;3.92;;;;;;;0.60;100.00;103276.09;5071207;28;20067;-45
2024/01/27 01:31:38;;;;;;;13.43;4.00;;;;;;;0.57;100.00;103272.56;5073200;28;20261;-46
2024/01/27 01:34:06;;;;;;;14.02;3.88;;;;;;;0.56;100.00;103269.13;5074247;28;20048;-53
2024/01/27 01:36:35;;;;;;;16.40;4.03;;;;;;;0.57;100.00;103268.25;5072448;28;20050;-52
2024/01/27 01:39:03;;;;;;;18.88;4.22;;;;;;;0.54;100.00;103281.16;5071693;28;20480;-50
2024/01/27 01:41:31;;;;;;;13.35;3.63;;;;;;;0.54;100.00;103280.28;5073297;28;20056;-50
2024/01/27 01:44:00;;;;;;;20.17;4.55;;;;;;;0.52;100.00;103277.69;5070375;28;20040;-50
2024/01/27 01:46:28;;;;;;;15.00;3.60;;;;;;;0.50;100.00;103276.78;5072883;28;20040;-53
2024/01/27 01:48:58;;;;;;;15.30;3.70;;;;;;;0.47;100.00;103275.00;5075146;28;20044;-49
2024/01/27 01:51:27;;;;;;;14.68;4.20;;;;;;;0.46;100.00;103278.47;5072845;28;20102;-51
2024/01/27 01:53:59;;;;;;;16.33;4.03;;;;;;;0.46;100.00;103286.25;5071290;28;20136;-51
2024/01/27 01:56:28;;;;;;;17.45;3.72;;;;;;;0.46;100.00;103287.94;5072541;28;20519;-51
2024/01/27 01:58:56;;;;;;;17.10;3.78;;;;;;;0.45;100.00;103284.47;5073315;28;20044;-54
2024/01/27 02:01:24;;;;;;;14.95;3.70;;;;;;;0.45;100.00;103279.31;5071153;28;20041;-51
2024/01/27 02:03:54;;;;;;;12.90;3.25;;;;;;;0.43;100.00;103287.88;5072079;28;20368;-52
2024/01/27 02:06:24;;;;;;;16.80;4.13;;;;;;;0.41;100.00;103285.28;5074335;28;20552;-50
2024/01/27 02:08:52;;;;;;;12.80;3.97;;;;;;;0.39;100.00;103286.09;5075167;28;20391;-52
2024/01/27 02:11:20;;;;;;;13.65;3.78;;;;;;;0.35;100.00;103285.16;5075442;28;20098;-53
2024/01/27 02:13:49;;;;;;;14.02;3.90;;;;;;;0.32;100.00;103287.72;5075046;28;20052;-52
2024/01/27 02:16:18;;;;;;;14.65;4.05;;;;;;;0.30;100.00;103285.09;5075082;28;20110;-50
2024/01/27 02:18:46;;;;;;;18.83;3.90;;;;;;;0.28;100.00;103284.19;5075043;28;20535;-53
2024/01/27 02:21:15;;;;;;;15.98;4.32;;;;;;;0.24;100.00;103281.53;5071237;28;20061;-50
2024/01/27 02:23:46;;;;;;;15.35;3.17;;;;;;;0.22;100.00;103297.03;5071627;28;20044;-50
2024/01/27 02:26:15;;;;;;;14.70;4.45;;;;;;;0.21;100.00;103281.50;5071070;28;20055;-52
2024/01/27 02:28:43;;;;;;;14.60;4.07;;;;;;;0.20;100.00;103275.41;5071842;28;20048;-51
2024/01/27 02:31:14;;;;;;;15.45;4.32;;;;;;;0.17;100.00;103293.50;5072510;28;20064;-49
2024/01/27 02:33:42;;;;;;;16.98;6.20;;;;;;;0.15;100.00;103295.16;5074384;28;20063;-52
2024/01/27 02:36:11;;;;;;;13.32;3.63;;;;;;;0.14;100.00;103291.72;5074606;28;20119;-52
2024/01/27 02:38:39;;;;;;;14.48;3.53;;;;;;;0.14;100.00;103299.50;5074616;28;20102;-51
2024/01/27 02:41:07;;;;;;;16.92;3.55;;;;;;;0.08;100.00;103299.41;5072539;28;20105;-51
2024/01/27 02:43:37;;;;;;;18.05;4.10;;;;;;;0.05;100.00;103293.28;5071296;28;20063;-51
2024/01/27 02:46:07;;;;;;;19.58;4.25;;;;;;;0.04;100.00;103294.13;5072370;28;20399;-50
2024/01/27 02:48:35;;;;;;;12.70;3.70;;;;;;;0.04;100.00;103291.53;5070891;28;20495;-51
2024/01/27 02:51:04;;;;;;;14.38;4.10;;;;;;;0.03;100.00;103292.38;5070031;28;20068;-54
2024/01/27 02:53:32;;;;;;;15.15;3.72;;;;;;;0.00;100.00;103290.63;5073524;28;20072;-50
2024/01/27 02:56:01;;;;;;;10.32;3.85;;;;;;;0.00;100.00;103295.81;5072525;28;20052;-52
2024/01/27 02:58:29;;;;;;;13.93;3.67;;;;;;;-0.03;100.00;103287.94;5073752;28;20044;-45
2024/01/27 03:01:01;;;;;;;16.58;4.13;;;;;;;-0.03;100.00;103282.78;5073920;28;20074;-46
2024/01/27 03:03:30;;;;;;;15.73;4.00;;;;;;;-0.02;100.00;103267.28;5073380;28;20434;-49
2024/01/27 03:05:58;;;;;;;11.95;4.30;;;;;;;-0.05;100.00;103281.91;5071142;28;20638;-47
2024/01/27 03:08:27;;;;;;;11.95;3.58;;;;;;;-0.08;100.00;103290.47;5069249;28;20040;-48
2024/01/27 03:10:56;;;;;;;11.25;3.85;;;;;;;-0.07;100.00;103281.88;5070217;28;20045;-48
2024/01/27 03:13:24;;;;;;;11.93;4.07;;;;;;;-0.06;100.00;103282.72;5073823;28;20523;-48
2024/01/27 03:15:52;;;;;;;15.88;3.97;;;;;;;-0.07;100.00;103283.56;5073573;28;20056;-47
2024/01/27 03:18:21;;;;;;;14.15;3.90;;;;;;;-0.06;100.00;103291.34;5071868;28;20049;-47
2024/01/27 03:20:50;;;;;;;18.50;4.07;;;;;;;-0.07;100.00;103281.88;5070223;28;20087;-46
2024/01/27 03:23:18;;;;;;;12.88;4.30;;;;;;;-0.08;100.00;103282.72;5072711;28;20048;-49
2024/01/27 03:25:47;;;;;;;12.32;3.72;;;;;;;-0.08;100.00;103290.47;5070029;28;20883;-47
2024/01/27 03:28:16;;;;;;;13.48;4.72;;;;;;;-0.10;100.00;103292.16;5070855;28;20044;-47
2024/01/27 03:30:44;;;;;;;15.98;4.18;;;;;;;-0.09;100.00;103300.78;5068440;28;20140;-49
2024/01/27 03:33:12;;;;;;;15.48;5.07;;;;;;;-0.10;100.00;103304.22;5071754;28;20052;-48
2024/01/27 03:35:42;;;;;;;18.42;4.47;;;;;;;-0.10;100.00;103296.47;5070634;28;20051;-49
2024/01/27 03:38:10;;;;;;;11.50;4.30;;;;;;;-0.12;100.00;103304.19;5070070;28;20339;-46
2024/01/27 03:40:38;;;;;;;14.75;4.55;;;;;;;-0.12;100.00;103305.88;5073132;28;20041;-48
2024/01/27 03:43:06;;;;;;;15.15;5.28;;;;;;;-0.13;100.00;103302.44;5071726;28;20105;-46
2024/01/27 03:45:34;;;;;;;17.35;5.03;;;;;;;-0.13;100.00;103297.25;5068282;28;20045;-46
2024/01/27 03:48:03;;;;;;;12.10;5.20;;;;;;;-0.14;100.00;103299.84;5072214;28;20383;-45
2024/01/27 03:50:31;;;;;;;14.75;5.55;;;;;;;-0.15;100.00;103296.38;5068227;28;20473;-46
2024/01/27 03:53:00;;;;;;;11.90;5.07;;;;;;;-0.17;100.00;103296.31;5070073;28;20055;-45
2024/01/27 03:55:32;;;;;;;18.85;5.30;;;;;;;-0.19;100.00;103303.19;5069608;28;20041;-46
2024/01/27 03:58:00;;;;;;;13.93;5.00;;;;;;;-0.21;100.00;103297.13;5069708;28;20090;-45
2024/01/27 04:00:32;;;;;;;19.80;5.35;;;;;;;-0.21;100.00;103304.00;5072551;28;20353;-47
2024/01/27 04:03:01;;;;;;;17.90;6.32;;;;;;;-0.22;100.00;103312.59;5072089;28;20102;-45
2024/01/27 04:05:30;;;;;;;17.33;5.80;;;;;;;-0.23;100.00;103318.63;5069140;28;20044;-45
2024/01/27 04:08:00;;;;;;;15.15;6.13;;;;;;;-0.23;100.00;103319.50;5068875;28;20040;-44
2024/01/27 04:10:28;;;;;;;11.98;5.78;;;;;;;-0.25;100.00;103322.91;5068879;28;20062;-45
2024/01/27 04:12:56;;;;;;;17.88;6.38;;;;;;;-0.25;100.00;103328.06;5071385;28;20376;-44
2024/01/27 04:15:24;;;;;;;16.92;6.07;;;;;;;-0.28;100.00;103323.72;5072611;28;20041;-47
2024/01/27 04:17:54;;;;;;;17.30;5.88;;;;;;;-0.29;100.00;103324.53;5069428;28;20731;-45
2024/01/27 04:20:22;;;;;;;16.50;6.88;;;;;;;-0.29;100.00;103332.31;5070192;28;20036;-51
2024/01/27 04:22:51;;;;;;;15.52;6.10;;;;;;;-0.32;100.00;103328.81;5072488;28;20407;-50
2024/01/27 04:25:20;;;;;;;12.35;6.10;;;;;;;-0.33;100.00;103330.50;5069648;28;20423;-50
2024/01/27 04:27:48;;;;;;;16.60;6.45;;;;;;;-0.34;100.00;103333.94;5069271;28;20090;-50
2024/01/27 04:30:17;;;;;;;22.33;6.95;;;;;;;-0.36;100.00;103325.28;5072751;28;20553;-49
2024/01/27 04:32:45;;;;;;;17.33;6.60;;;;;;;-0.39;100.00;103333.84;5072201;28;20162;-50
2024/01/27 04:35:13;;;;;;;15.57;6.97;;;;;;;-0.39;100.00;103327.81;5072212;28;20047;-45
2024/01/27 04:37:41;;;;;;;19.92;7.00;;;;;;;-0.40;100.00;103321.75;5070578;28;20052;-45
2024/01/27 04:40:10;;;;;;;15.48;6.93;;;;;;;-0.41;100.00;103321.72;5068799;28;20042;-46
2024/01/27 04:42:40;;;;;;;13.10;6.65;;;;;;;-0.45;100.00;103319.91;5070098;28;20060;-51
2024/01/27 04:45:09;;;;;;;21.60;8.20;;;;;;;-0.46;100.00;103320.75;5066096;28;20049;-49
2024/01/27 04:47:37;;;;;;;19.55;7.78;;;;;;;-0.45;100.00;103319.91;5069990;28;20044;-52
2024/01/27 04:50:06;;;;;;;16.65;7.25;;;;;;;-0.48;100.00;103319.84;5072036;28;20514;-51
2024/01/27 04:52:34;;;;;;;19.45;7.95;;;;;;;-0.51;100.00;103316.34;5072141;28;20388;-50
2024/01/27 04:55:03;;;;;;;22.02;7.90;;;;;;;-0.53;100.00;103312.88;5072351;28;20045;-51
2024/01/27 04:57:31;;;;;;;18.90;7.43;;;;;;;-0.56;100.00;103302.47;5072426;28;20041;-50
2024/01/27 05:00:01;;;;;;;18.70;7.97;;;;;;;-0.57;100.00;103307.63;5072440;28;20063;-53
2024/01/27 05:02:29;;;;;;;17.63;8.38;;;;;;;-0.59;100.00;103315.31;5072435;28;20127;-49
2024/01/27 05:04:57;;;;;;;15.90;7.57;;;;;;;-0.60;100.00;103308.44;5070378;28;20052;-50
2024/01/27 05:07:25;;;;;;;21.55;8.38;;;;;;;-0.59;100.00;103310.16;5068281;28;20472;-52
2024/01/27 05:09:53;;;;;;;21.42;8.75;;;;;;;-0.60;100.00;103318.75;5068201;28;20044;-54
2024/01/27 05:12:24;;;;;;;19.30;7.90;;;;;;;-0.60;100.00;103308.44;5068233;28;20502;-53
2024/01/27 05:14:52;;;;;;;21.10;8.38;;;;;;;-0.59;100.00;103309.28;5071422;28;20444;-52
2024/01/27 05:17:22;;;;;;;18.50;7.70;;;;;;;-0.61;100.00;103308.41;5071325;28;20080;-52
2024/01/27 05:19:51;;;;;;;18.80;7.53;;;;;;;-0.64;100.00;103311.78;5071865;28;20261;-50
2024/01/27 05:22:19;;;;;;;26.55;8.10;;;;;;;-0.64;100.00;103309.19;5068216;28;20066;-50
2024/01/27 05:24:47;;;;;;;22.98;8.23;;;;;;;-0.66;100.00;103305.69;5068650;28;20051;-51
2024/01/27 05:27:15;;;;;;;16.48;8.50;;;;;;;-0.68;100.00;103300.50;5067659;28;20037;-51
2024/01/27 05:29:43;;;;;;;20.90;8.45;;;;;;;-0.70;100.00;103307.34;5068767;28;20411;-49
2024/01/27 05:32:12;;;;;;;18.17;7.53;;;;;;;-0.70;100.00;103312.50;5072694;28;20067;-52
2024/01/27 05:34:41;;;;;;;17.80;8.50;;;;;;;-0.72;100.00;103300.41;5071986;28;20051;-52
2024/01/27 05:37:09;;;;;;;20.15;8.50;;;;;;;-0.75;100.00;103300.31;5075467;28;20051;-52
2024/01/27 05:39:38;;;;;;;22.40;9.13;;;;;;;-0.76;100.00;103298.59;5075767;28;20048;-51
2024/01/27 05:42:06;;;;;;;17.77;7.88;;;;;;;-0.79;100.00;103298.50;5075321;28;20049;-48
2024/01/27 05:44:34;;;;;;;19.48;8.40;;;;;;;-0.81;100.00;103302.78;5075568;28;20376;-49
2024/01/27 05:47:02;;;;;;;18.42;8.07;;;;;;;-0.83;100.00;103304.47;5075178;28;20135;-49
2024/01/27 05:49:33;;;;;;;21.63;8.60;;;;;;;-0.86;100.00;103292.34;5072453;28;20513;-50
2024/01/27 05:52:03;;;;;;;20.65;8.20;;;;;;;-0.89;100.00;103303.47;5072866;28;20045;-49
2024/01/27 05:54:31;;;;;;;17.60;8.15;;;;;;;-0.90;100.00;103294.00;5075281;28;20052;-49
2024/01/27 05:56:59;;;;;;;21.70;8.13;;;;;;;-0.92;100.00;103300.84;5075373;28;20048;-51
2024/01/27 05:59:28;;;;;;;17.65;7.95;;;;;;;-0.94;100.00;103297.34;5075540;28;20075;-49
2024/01/27 06:01:57;;;;;;;20.27;8.45;;;;;;;-0.95;100.00;103297.34;5072064;28;20055;-50
2024/01/27 06:04:29;;;;;;;20.25;9.63;;;;;;;-0.96;100.00;103296.44;5072031;28;20044;-51
2024/01/27 06:06:58;;;;;;;17.55;8.52;;;;;;;-0.96;100.00;103291.28;5071809;28;20383;-50
2024/01/27 06:09:27;;;;;;;19.17;8.93;;;;;;;-0.98;100.00;103295.56;5073648;28;20127;-50
2024/01/27 06:11:59;;;;;;;18.88;8.77;;;;;;;-0.98;100.00;103308.47;5072388;28;20137;-51
2024/01/27 06:14:27;;;;;;;20.13;8.70;;;;;;;-0.98;100.00;103299.81;5070080;28;20059;-50
2024/01/27 06:16:55;;;;;;;19.13;8.60;;;;;;;-1.02;100.00;103302.34;5071507;28;20040;-52
2024/01/27 06:19:23;;;;;;;21.30;11.00;;;;;;;-1.03;100.00;103300.59;5072396;28;20140;-51
2024/01/27 06:21:51;;;;;;;19.23;9.35;;;;;;;-1.01;100.00;103308.38;5074248;28;20453;-50
2024/01/27 06:24:19;;;;;;;21.88;9.80;;;;;;;-1.03;100.00;103310.94;5074613;28;20040;-51
2024/01/27 06:26:49;;;;;;;19.20;9.30;;;;;;;-1.03;100.00;103310.06;5072845;28;20071;-45
2024/01/27 06:29:18;;;;;;;20.17;9.10;;;;;;;-1.06;100.00;103315.16;5071760;28;20894;-46
2024/01/27 06:31:46;;;;;;;16.15;9.70;;;;;;;-1.08;100.00;103322.88;5071606;28;20048;-46
2024/01/27 06:34:15;;;;;;;22.83;10.00;;;;;;;-1.08;100.00;103309.06;5071106;28;20068;-48
2024/01/27 06:36:43;;;;;;;22.90;9.80;;;;;;;-1.11;100.00;103316.75;5071714;28;20123;-50
2024/01/27 06:39:11;;;;;;;19.00;9.68;;;;;;;-1.10;100.00;103324.53;5070921;28;20492;-51
2024/01/27 06:41:40;;;;;;;22.42;10.52;;;;;;;-1.10;100.00;103323.69;5070695;28;20125;-52
2024/01/27 06:44:09;;;;;;;19.58;9.95;;;;;;;-1.09;100.00;103335.75;5070430;28;20059;-50
2024/01/27 06:46:37;;;;;;;22.15;10.88;;;;;;;-1.11;100.00;103319.34;5071066;28;20488;-49
2024/01/27 06:49:05;;;;;;;21.08;11.70;;;;;;;-1.13;100.00;103331.34;5070890;28;20044;-49
2024/01/27 06:51:34;;;;;;;22.25;10.77;;;;;;;-1.15;100.00;103327.88;5073911;28;20080;-51
2024/01/27 06:54:02;;;;;;;22.10;10.70;;;;;;;-1.16;100.00;103326.97;5074357;28;20458;-51
2024/01/27 06:56:30;;;;;;;16.83;9.48;;;;;;;-1.19;100.00;103329.50;5073466;28;20048;-51
2024/01/27 06:58:58;;;;;;;19.65;10.30;;;;;;;-1.21;100.00;103334.63;5070534;28;20539;-49
2024/01/27 07:01:28;;;;;;;19.63;9.75;;;;;;;-1.23;100.00;103333.72;5071833;28;20040;-49
2024/01/27 07:03:56;;;;;;;16.50;9.23;;;;;;;-1.25;100.00;103340.56;5071540;28;20531;-51
2024/01/27 07:06:24;;;;;;;19.58;9.60;;;;;;;-1.23;100.00;103340.59;5071042;28;20439;-50
2024/01/27 07:08:53;;;;;;;19.63;10.73;;;;;;;-1.24;100.00;103337.13;5074144;28;20510;-48
2024/01/27 07:11:21;;;;;;;25.33;9.95;;;;;;;-1.23;100.00;103340.59;5074012;28;20058;-50
2024/01/27 07:13:49;;;;;;;18.20;9.60;;;;;;;-1.26;100.00;103343.09;5073642;28;20044;-51
2024/01/27 07:16:20;;;;;;;23.02;10.88;;;;;;;-1.25;100.00;103357.78;5070960;28;20075;-51
2024/01/27 07:18:49;;;;;;;22.35;12.13;;;;;;;-1.26;100.00;103346.53;5070999;28;20433;-51
2024/01/27 07:21:21;;;;;;;27.77;12.75;;;;;;;-1.25;100.00;103347.44;5070533;28;20060;-52
2024/01/27 07:23:49;;;;;;;16.50;10.80;;;;;;;-1.26;100.00;103351.72;5070638;28;20070;-49
2024/01/27 07:26:17;;;;;;;21.27;11.60;;;;;;;-1.28;100.00;103355.97;5071376;28;20556;-49
2024/01/27 07:28:45;;;;;;;21.02;11.07;;;;;;;-1.29;100.00;103361.97;5072883;28;20492;-50
2024/01/27 07:31:14;;;;;;;26.00;11.15;;;;;;;-1.26;100.00;103368.94;5073091;28;20076;-51
2024/01/27 07:33:42;;;;;;;19.67;11.25;;;;;;;-1.28;100.00;103374.06;5070002;28;20048;-51
2024/01/27 07:36:12;;;;;;;22.38;10.88;;;;;;;-1.30;100.00;103370.53;5070674;28;20037;-53
2024/01/27 07:38:40;;;;;;;26.83;10.77;;;;;;;-1.27;100.00;103372.34;5071546;28;20082;-52
2024/01/27 07:41:08;;;;;;;20.52;11.32;;;;;;;-1.27;100.00;103372.34;5068255;28;20060;-51
2024/01/27 07:43:36;;;;;;;26.10;11.07;;;;;;;-1.28;100.00;103373.16;5072032;28;20040;-51
2024/01/27 07:46:04;;;;;;;17.33;11.10;;;;;;;-1.29;100.00;103377.47;5073105;28;20040;-51
2024/01/27 07:48:33;;;;;;;25.45;11.93;;;;;;;-1.26;100.00;103374.94;5073073;28;20119;-50
2024/01/27 07:51:01;;;;;;;23.67;12.43;;;;;;;-1.26;100.00;103369.78;5073035;28;20040;-50
2024/01/27 07:53:30;;;;;;;23.98;12.73;;;;;;;-1.26;100.00;103369.78;5071286;28;20044;-51
2024/01/27 07:55:59;;;;;;;21.23;12.38;;;;;;;-1.22;100.00;103361.28;5069271;28;20051;-50
2024/01/27 07:58:27;;;;;;;23.48;12.13;;;;;;;-1.20;100.00;103369.94;5069934;28;20566;-51
2024/01/27 08:00:55;;;;;;;23.77;13.38;;;;;;;-1.12;100.00;103366.66;5068284;28;20045;-49
2024/01/27 08:03:23;;;;;;;25.33;12.40;;;;;;;-1.03;100.00;103378.09;5070302;28;20048;-50
2024/01/27 08:05:51;;;;;;;25.38;12.55;;;;;;;-0.89;100.00;103372.38;5072883;28;20055;-50
2024/01/27 08:08:20;;;;;;;27.63;13.15;;;;;;;-0.68;100.00;103390.97;5073021;28;20045;-51
2024/01/27 08:10:49;;;;;;;23.48;13.50;;;;;;;-0.52;100.00;103394.78;5072582;28;20480;-50
2024/01/27 08:13:17;;;;;;;27.60;14.80;;;;;;;-0.43;100.00;103391.50;5073163;28;20040;-52
2024/01/27 08:15:45;;;;;;;29.80;15.35;;;;;;;-0.32;100.00;103388.28;5072751;28;20036;-51
2024/01/27 08:18:13;;;;;;;27.95;15.77;;;;;;;-0.24;100.00;103384.16;5072476;28;20056;-51
2024/01/27 08:20:43;;;;;;;26.50;14.27;;;;;;;-0.09;100.00;103391.34;5072728;28;20432;-52
2024/01/27 08:23:12;;;;;;;27.83;14.60;;;;;;;0.07;100.00;103398.56;5072826;28;20060;-48
2024/01/27 08:25:40;;;;;;;24.88;14.15;;;;;;;0.26;100.00;103396.31;5067985;28;20156;-52
2024/01/27 08:28:10;;;;;;;26.65;14.07;;;;;;;0.42;100.00;103400.94;5070169;28;20041;-51
2024/01/27 08:30:39;;;;;;;24.30;13.25;;;;;;;0.68;100.00;103405.69;5072908;28;20567;-49
2024/01/27 08:33:07;;;;;;;22.33;13.45;;;;;;;0.81;100.00;103396.44;5072642;28;20068;-51
2024/01/27 08:35:35;;;;;;;27.48;14.05;;;;;;;1.01;100.00;103397.63;5072452;28;20032;-53
2024/01/27 08:38:05;;;;;;;22.45;13.38;;;;;;;1.22;100.00;103392.75;5071921;28;20036;-51
2024/01/27 08:40:34;;;;;;;22.92;13.05;;;;;;;1.40;100.00;103390.41;5071937;28;20090;-51
2024/01/27 08:43:02;;;;;;;21.35;12.52;;;;;;;1.63;100.00;103400.22;5072511;28;20040;-50
2024/01/27 08:45:34;;;;;;;21.38;11.43;;;;;;;1.75;100.00;103396.94;5072197;28;20044;-50
2024/01/27 08:48:02;;;;;;;20.15;10.73;;;;;;;1.91;100.00;103403.16;5072291;28;20036;-49
2024/01/27 08:50:30;;;;;;;24.63;11.43;;;;;;;2.03;100.00;103404.19;5070997;28;20041;-50
2024/01/27 08:52:58;;;;;;;22.85;10.98;;;;;;;2.11;100.00;103408.59;5069398;28;20048;-50
2024/01/27 08:55:26;;;;;;;22.38;11.50;;;;;;;2.35;100.00;103416.66;5069913;28;20160;-52
2024/01/27 08:57:56;;;;;;;21.60;10.93;;;;;;;2.28;100.00;103411.41;5072188;28;20056;-52
2024/01/27 09:00:24;;;;;;;22.10;10.27;;;;;;;2.42;100.00;103417.59;5072165;28;20056;-52
2024/01/27 09:02:54;;;;;;;19.17;10.23;;;;;;;2.50;100.00;103413.34;5072175;28;20084;-50
2024/01/27 09:05:22;;;;;;;20.38;10.55;;;;;;;2.57;100.00;103426.41;5071258;28;20125;-50
2024/01/27 09:07:50;;;;;;;22.98;10.52;;;;;;;2.40;100.00;103427.09;5073654;28;20036;-49
2024/01/27 09:10:18;;;;;;;23.20;11.00;;;;;;;2.49;100.00;103421.97;5076408;28;20127;-49
2024/01/27 09:12:47;;;;;;;28.40;11.35;;;;;;;2.53;100.00;103418.56;5076195;28;20045;-49
2024/01/27 09:15:15;;;;;;;22.42;10.50;;;;;;;2.50;100.00;103420.28;5076248;28;20049;-51
2024/01/27 09:17:43;;;;;;;19.38;11.00;;;;;;;2.49;100.00;103419.38;5075843;28;20048;-51
2024/01/27 09:20:13;;;;;;;22.63;10.70;;;;;;;2.50;100.00;103407.28;5075814;28;20055;-51
2024/01/27 09:22:42;;;;;;;21.48;11.88;;;;;;;2.59;100.00;103414.28;5076057;28;20091;-50
2024/01/27 09:25:10;;;;;;;23.58;12.15;;;;;;;2.61;100.00;103415.19;5075828;28;20059;-52
2024/01/27 09:27:38;;;;;;;21.95;10.60;;;;;;;2.63;100.00;103421.25;5075802;28;20048;-50
2024/01/27 09:30:07;;;;;;;19.63;10.98;;;;;;;2.63;100.00;103427.34;5075820;28;20059;-50
2024/01/27 09:32:36;;;;;;;19.40;10.60;;;;;;;2.64;100.00;103431.66;5075871;28;20123;-51
2024/01/27 09:35:05;;;;;;;21.75;11.07;;;;;;;2.61;100.00;103425.56;5074615;28;20144;-52
2024/01/27 09:37:34;;;;;;;18.67;10.57;;;;;;;2.56;100.00;103428.13;5072929;28;20105;-53
2024/01/27 09:40:04;;;;;;;21.10;9.98;;;;;;;2.59;100.00;103435.97;5072312;28;20048;-53
2024/01/27 09:42:34;;;;;;;20.02;10.82;;;;;;;2.66;100.00;103436.88;5075514;28;20553;-53
2024/01/27 09:45:04;;;;;;;24.23;10.55;;;;;;;2.76;100.00;103443.03;5075861;28;20542;-49
2024/01/27 09:47:34;;;;;;;24.52;11.40;;;;;;;2.87;100.00;103442.25;5075226;28;20044;-53
2024/01/27 09:50:03;;;;;;;20.50;10.73;;;;;;;3.04;100.00;103434.63;5075311;28;20060;-52
2024/01/27 09:52:31;;;;;;;18.33;10.90;;;;;;;3.08;100.00;103440.72;5073591;28;20045;-54
2024/01/27 09:55:01;;;;;;;20.45;11.73;;;;;;;3.15;100.00;103441.59;5071983;28;20053;-53
2024/01/27 09:57:30;;;;;;;20.80;11.73;;;;;;;3.43;100.00;103450.47;5072024;28;20048;-54
2024/01/27 10:00:00;;;;;;;21.13;11.50;;;;;;;3.61;100.00;103441.91;5070196;28;20535;-54
2024/01/27 10:02:30;;;;;;;19.50;11.73;;;;;;;3.78;100.00;103444.63;5071661;28;20480;-53
2024/01/27 10:04:59;;;;;;;19.70;10.68;;;;;;;3.85;100.00;103450.72;5073809;28;20123;-54
2024/01/27 10:07:28;;;;;;;23.10;10.68;;;;;;;4.22;100.00;103445.66;5075060;28;20059;-52
2024/01/27 10:09:56;;;;;;;19.38;10.13;;;;;;;4.43;100.00;103460.50;5074369;28;20036;-54
2024/01/27 10:12:29;;;;;;;22.48;10.38;;;;;;;4.60;100.00;103470.09;5071901;28;20048;-54
2024/01/27 10:14:57;;;;;;;;;;;;;;;4.83;100.00;103468.38;5072497;28;20515;-55
2024/01/27 10:17:29;;;;;;;26.10;10.18;;;;;;;4.79;100.00;103466.63;5074922;28;19927;-53
2024/01/27 10:20:02;;;;;;;16.88;8.93;;;;;;;5.10;100.00;103464.03;5074710;28;20038;-54
2024/01/27 10:22:38;;;;;;;21.65;9.98;;;;;;;5.46;100.00;103474.44;5071438;28;20045;-55
2024/01/27 10:25:07;;;;;;;21.48;8.35;;;;;;;5.55;100.00;103477.03;5069730;28;20048;-55
2024/01/27 10:27:37;;;;;;;19.55;9.43;;;;;;;5.70;100.00;103474.38;5071939;28;20475;-54
2024/01/27 10:30:07;;;;;;;19.58;8.07;;;;;;;5.57;100.00;103476.13;5069329;28;20044;-54
2024/01/27 10:32:35;;;;;;;17.77;7.80;;;;;;;5.70;100.00;103466.56;5073991;28;20537;-54
2024/01/27 10:35:04;;;;;;;18.02;7.78;;;;;;;5.65;100.00;103463.06;5074253;28;20127;-53
2024/01/27 10:37:32;;;;;;;18.33;7.57;;;;;;;5.58;100.00;103466.59;5071428;28;20036;-54
2024/01/27 10:40:02;;;;;;;18.27;8.55;;;;;;;5.52;100.00;103464.88;5072278;28;20094;-55
2024/01/27 10:42:31;;;;;;;17.63;8.18;;;;;;;5.38;100.00;103461.41;5074702;28;20079;-55
2024/01/27 10:45:00;;;;;;;13.73;7.68;;;;;;;5.32;100.00;103470.09;5074425;28;20098;-54
2024/01/27 10:47:30;;;;;;;18.38;8.10;;;;;;;5.22;100.00;103463.13;5074638;28;20572;-54
2024/01/27 10:50:00;;;;;;;16.90;8.15;;;;;;;5.19;100.00;103461.41;5074263;28;20045;-55
2024/01/27 10:52:32;;;;;;;17.25;7.55;;;;;;;5.22;100.00;103463.13;5074413;28;20072;-55
2024/01/27 10:55:02;;;;;;;17.87;6.93;;;;;;;5.25;100.00;103452.72;5074092;28;20525;-54
2024/01/27 10:57:31;;;;;;;15.45;7.15;;;;;;;5.33;100.00;103456.19;5073847;28;20052;-55
2024/01/27 11:00:03;;;;;;;17.05;7.03;;;;;;;5.41;100.00;103456.16;5068756;28;20052;-55
2024/01/27 11:02:35;;;;;;;21.90;8.13;;;;;;;5.57;100.00;103460.47;5070602;28;20044;-54
2024/01/27 11:05:08;;;;;;;14.82;7.30;;;;;;;5.78;100.00;103453.47;5071157;28;20057;-54
2024/01/27 11:07:39;;;;;;;20.00;7.32;;;;;;;5.84;100.00;103461.28;5070928;28;20059;-55
2024/01/27 11:10:08;;;;;;;16.60;7.35;;;;;;;5.84;100.00;103450.84;5070303;28;20037;-55
2024/01/27 11:12:40;;;;;;;14.07;6.68;;;;;;;5.89;100.00;103441.25;5070392;28;20521;-55
2024/01/27 11:15:10;;;;;;;17.02;7.15;;;;;;;5.86;100.00;103438.66;5069847;28;20048;-53
2024/01/27 11:17:42;;;;;;;13.43;6.68;;;;;;;5.86;100.00;103430.81;5072203;28;20444;-55